Time;durP1;ratioP1;P1;durP2;ratioP2;P2;SDS_P1;SDS_P2;PMS_P1;PMS_P2;Temp;Humidity;BMP_temperature;BMP_pressure;BME280_temperature;BME280_humidity;BME280_pressure;Samples;Min_cycle;Max_cycle;Signal;HPM_P1;HPM_P2
2023/06/10 00:00:30;;;;;;;7.47;6.30;;;;;17.10;96067.00;;;;8268559;28;20198;-70
2023/06/10 00:04:36;;;;;;;9.45;6.65;;;;;17.00;96059.00;;;;8268916;28;20345;-69
2023/06/10 00:08:47;;;;;;;7.55;6.45;;;;;17.00;96056.00;;;;8278313;28;20565;-69
2023/06/10 00:12:56;;;;;;;10.88;6.80;;;;;16.90;96064.00;;;;8274712;28;20273;-69
2023/06/10 00:17:00;;;;;;;10.10;7.03;;;;;16.90;96058.00;;;;8276559;28;20299;-69
2023/06/10 00:21:04;;;;;;;9.65;6.45;;;;;16.80;96062.00;;;;8273712;28;20206;-68
2023/06/10 00:25:10;;;;;;;7.22;6.30;;;;;16.70;96061.00;;;;8271160;28;20313;-69
2023/06/10 00:29:16;;;;;;;7.78;6.40;;;;;16.70;96062.00;;;;8260946;28;20379;-71
2023/06/10 00:33:22;;;;;;;9.63;6.90;;;;;16.60;96061.00;;;;8272315;28;20229;-72
2023/06/10 00:37:25;;;;;;;11.38;7.03;;;;;16.60;96057.00;;;;8271055;28;20202;-71
2023/06/10 00:41:34;;;;;;;8.38;6.90;;;;;16.70;96051.00;;;;8265074;28;21067;-68
2023/06/10 00:45:39;;;;;;;9.13;7.28;;;;;16.60;96045.00;;;;8275034;28;20649;-69
2023/06/10 00:49:48;;;;;;;13.35;6.60;;;;;16.60;96042.00;;;;8284863;28;20194;-68
2023/06/10 00:53:53;;;;;;;10.23;6.65;;;;;16.60;96038.00;;;;8268077;28;20755;-69
2023/06/10 00:57:58;;;;;;;8.85;7.00;;;;;16.60;96032.00;;;;8264289;28;20277;-69
2023/06/10 01:02:04;;;;;;;10.20;7.03;;;;;16.60;96030.00;;;;8270040;28;20254;-70
2023/06/10 01:06:17;;;;;;;9.25;7.13;;;;;16.60;96027.00;;;;8266220;28;20198;-70
2023/06/10 01:10:28;;;;;;;8.35;6.38;;;;;16.60;96028.00;;;;8265052;28;20199;-70
2023/06/10 01:14:35;;;;;;;9.57;6.72;;;;;16.60;96029.00;;;;8280030;28;20214;-70
2023/06/10 01:18:41;;;;;;;9.95;7.45;;;;;16.50;96032.00;;;;8258080;28;20199;-69
2023/06/10 01:22:47;;;;;;;10.13;7.60;;;;;16.40;96038.00;;;;8271213;28;20265;-69
2023/06/10 01:27:00;;;;;;;10.45;7.60;;;;;16.40;96038.00;;;;8269292;28;20195;-69
2023/06/10 01:31:11;;;;;;;8.82;6.78;;;;;16.30;96043.00;;;;8271560;28;20616;-69
2023/06/10 01:35:16;;;;;;;7.55;6.75;;;;;16.30;96043.00;;;;8263079;28;20219;-70
2023/06/10 01:39:25;;;;;;;10.02;7.40;;;;;16.40;96041.00;;;;8251315;28;20212;-71
2023/06/10 01:43:28;;;;;;;10.13;7.43;;;;;16.50;96049.00;;;;8256978;28;20231;-70
2023/06/10 01:47:32;;;;;;;8.77;6.63;;;;;16.50;96045.00;;;;8263685;28;20291;-69
2023/06/10 01:51:36;;;;;;;8.20;7.00;;;;;16.50;96041.00;;;;8259139;28;20635;-70
2023/06/10 01:55:43;;;;;;;9.00;7.00;;;;;16.50;96040.00;;;;8271673;28;20204;-70
2023/06/10 01:59:49;;;;;;;10.95;7.57;;;;;16.60;96044.00;;;;8262205;28;20207;-70
2023/06/10 02:03:55;;;;;;;11.32;7.35;;;;;16.60;96039.00;;;;8268313;28;20232;-70
2023/06/10 02:08:03;;;;;;;10.13;7.43;;;;;16.50;96043.00;;;;8262569;28;20286;-70
2023/06/10 02:12:10;;;;;;;10.68;8.43;;;;;16.50;96044.00;;;;8251134;28;20289;-69
2023/06/10 02:16:16;;;;;;;11.85;8.60;;;;;16.40;96050.00;;;;8261063;28;20283;-70
2023/06/10 02:20:20;;;;;;;12.32;8.30;;;;;16.30;96039.00;;;;8258456;28;20293;-70
2023/06/10 02:24:23;;;;;;;10.45;8.57;;;;;16.30;96046.00;;;;8258431;28;20225;-70
2023/06/10 02:28:28;;;;;;;11.07;8.65;;;;;16.20;96047.00;;;;8266558;28;20229;-69
2023/06/10 02:32:33;;;;;;;11.07;8.90;;;;;16.20;96048.00;;;;8259215;28;20205;-69
2023/06/10 02:36:39;;;;;;;11.57;8.65;;;;;16.20;96049.00;;;;8266961;28;20741;-67
2023/06/10 02:40:43;;;;;;;12.18;9.10;;;;;16.10;96051.00;;;;8273160;28;20736;-68
2023/06/10 02:44:49;;;;;;;11.32;8.60;;;;;16.10;96046.00;;;;8270670;28;20231;-68
2023/06/10 02:48:56;;;;;;;15.75;9.38;;;;;16.00;96046.00;;;;8268389;28;20314;-69
2023/06/10 02:53:00;;;;;;;11.90;8.68;;;;;15.90;96054.00;;;;8260334;28;20229;-69
2023/06/10 02:57:07;;;;;;;13.55;9.50;;;;;15.80;96051.00;;;;8265510;28;20297;-69
2023/06/10 03:05:23;;;;;;;15.18;9.55;;;;;15.90;96050.00;;;;8199545;28;20302;-69
2023/06/10 03:09:29;;;;;;;13.82;9.73;;;;;16.00;96048.00;;;;8207025;28;20931;-69
2023/06/10 03:13:33;;;;;;;13.05;9.75;;;;;16.00;96052.00;;;;8211878;28;20697;-69
2023/06/10 03:17:39;;;;;;;17.55;10.15;;;;;16.00;96051.00;;;;8211490;28;20566;-69
2023/06/10 03:21:56;;;;;;;16.98;10.30;;;;;16.00;96051.00;;;;8213490;28;21738;-69
2023/06/10 03:26:00;;;;;;;11.30;8.57;;;;;16.00;96052.00;;;;8205948;28;20235;-69
2023/06/10 03:30:04;;;;;;;15.57;10.00;;;;;16.10;96051.00;;;;8212574;28;20191;-69
2023/06/10 03:34:09;;;;;;;10.73;8.38;;;;;16.20;96055.00;;;;8216852;28;20873;-71
2023/06/10 03:38:14;;;;;;;14.68;9.88;;;;;16.30;96060.00;;;;8216054;28;20199;-69
2023/06/10 03:42:20;;;;;;;11.50;9.30;;;;;16.30;96058.00;;;;8216197;28;20279;-68
2023/06/10 03:46:23;;;;;;;13.65;9.60;;;;;16.40;96054.00;;;;8220689;28;20314;-70
2023/06/10 03:50:28;;;;;;;14.32;9.07;;;;;16.50;96055.00;;;;8215610;28;20202;-69
2023/06/10 03:54:43;;;;;;;12.13;8.88;;;;;16.60;96063.00;;;;8211034;28;20286;-69
2023/06/10 03:58:46;;;;;;;12.98;8.98;;;;;16.80;96066.00;;;;8216228;28;20206;-68
2023/06/10 04:02:51;;;;;;;11.25;9.30;;;;;17.00;96062.00;;;;8213993;28;20233;-69
2023/06/10 04:06:55;;;;;;;12.77;8.88;;;;;17.30;96070.00;;;;8207242;28;20635;-69
2023/06/10 04:11:02;;;;;;;11.98;8.20;;;;;17.60;96063.00;;;;8218740;28;20211;-69
2023/06/10 04:15:08;;;;;;;13.32;8.70;;;;;17.90;96063.00;;;;8218694;28;20199;-69
2023/06/10 04:19:12;;;;;;;10.98;7.90;;;;;18.20;96072.00;;;;8215807;28;20641;-69
2023/06/10 04:23:18;;;;;;;9.48;8.10;;;;;18.50;96069.00;;;;8219310;28;20222;-70
2023/06/10 04:27:25;;;;;;;12.18;7.97;;;;;18.80;96069.00;;;;8208929;28;20199;-70
2023/06/10 04:31:28;;;;;;;11.70;8.35;;;;;19.10;96074.00;;;;8205397;28;20204;-70
2023/06/10 04:35:47;;;;;;;10.68;8.00;;;;;19.40;96073.00;;;;8210608;28;20238;-70
2023/06/10 04:39:52;;;;;;;8.68;7.68;;;;;19.70;96076.00;;;;8204453;28;20205;-71
2023/06/10 04:43:58;;;;;;;9.30;7.45;;;;;19.80;96078.00;;;;8213273;28;20244;-70
2023/06/10 04:48:04;;;;;;;12.45;7.65;;;;;19.90;96085.00;;;;8217843;28;20756;-70
2023/06/10 04:52:08;;;;;;;8.70;7.32;;;;;19.80;96087.00;;;;8210565;28;20199;-70
2023/06/10 04:56:16;;;;;;;9.73;7.95;;;;;19.80;96088.00;;;;8215762;28;20231;-70
2023/06/10 05:00:21;;;;;;;11.20;7.88;;;;;19.80;96091.00;;;;8188732;28;20198;-70
2023/06/10 05:04:25;;;;;;;9.93;7.72;;;;;19.80;96093.00;;;;8212871;28;20235;-70
2023/06/10 05:08:36;;;;;;;8.77;7.13;;;;;19.90;96097.00;;;;8215325;28;20311;-70
2023/06/10 05:12:39;;;;;;;10.18;7.80;;;;;19.80;96089.00;;;;8214239;28;20303;-71
2023/06/10 05:16:44;;;;;;;9.55;7.57;;;;;19.80;96091.00;;;;8212815;28;20204;-70
2023/06/10 05:20:49;;;;;;;9.88;8.13;;;;;19.90;96096.00;;;;8214357;28;20291;-69
2023/06/10 05:24:54;;;;;;;8.95;7.10;;;;;20.00;96093.00;;;;8213634;28;20231;-70
2023/06/10 05:28:58;;;;;;;10.68;7.78;;;;;20.10;96096.00;;;;8209649;28;20299;-69
2023/06/10 05:33:06;;;;;;;8.20;7.35;;;;;20.20;96097.00;;;;8208862;28;20203;-69
2023/06/10 05:37:10;;;;;;;11.43;7.70;;;;;20.50;96096.00;;;;8213337;28;20217;-70
2023/06/10 05:41:13;;;;;;;9.32;7.65;;;;;20.80;96098.00;;;;8208056;28;20327;-70
2023/06/10 05:45:19;;;;;;;8.48;6.93;;;;;21.30;96113.00;;;;8208411;28;20223;-70
2023/06/10 05:49:25;;;;;;;11.48;7.72;;;;;21.60;96109.00;;;;8208853;28;20230;-69
2023/06/10 05:53:28;;;;;;;8.85;6.97;;;;;22.00;96116.00;;;;8192612;28;20200;-70
2023/06/10 05:57:31;;;;;;;8.20;7.40;;;;;22.40;96111.00;;;;8208884;28;20311;-69
2023/06/10 06:01:37;;;;;;;9.40;7.07;;;;;22.80;96106.00;;;;8207756;28;20712;-69
2023/06/10 06:05:44;;;;;;;8.25;7.35;;;;;23.10;96105.00;;;;8204741;28;20212;-69
2023/06/10 06:09:47;;;;;;;11.95;7.40;;;;;23.20;96098.00;;;;8211070;28;20287;-70
2023/06/10 06:13:50;;;;;;;9.32;6.82;;;;;23.50;96107.00;;;;8204460;28;20696;-69
2023/06/10 06:17:56;;;;;;;7.43;6.70;;;;;23.80;96105.00;;;;8215909;28;20199;-69
2023/06/10 06:22:03;;;;;;;14.52;7.18;;;;;23.60;96104.00;;;;8213339;28;20772;-71
2023/06/10 06:26:09;;;;;;;7.65;6.60;;;;;23.60;96107.00;;;;8197576;28;20270;-68
2023/06/10 06:30:19;;;;;;;7.80;6.53;;;;;24.00;96110.00;;;;8195970;28;20295;-68
2023/06/10 06:34:22;;;;;;;7.85;7.03;;;;;24.20;96109.00;;;;8194237;28;20651;-70
2023/06/10 06:38:26;;;;;;;8.30;6.70;;;;;24.30;96113.00;;;;8212120;28;20556;-71
2023/06/10 06:42:30;;;;;;;7.78;6.90;;;;;24.40;96113.00;;;;8208343;28;20203;-69
2023/06/10 06:46:36;;;;;;;8.32;6.70;;;;;24.50;96109.00;;;;8206944;28;20244;-70
2023/06/10 06:50:41;;;;;;;8.57;6.50;;;;;24.60;96113.00;;;;8205343;28;20310;-70
2023/06/10 06:54:47;;;;;;;7.50;6.50;;;;;24.50;96120.00;;;;8206291;28;20208;-69
2023/06/10 06:58:53;;;;;;;11.23;6.47;;;;;24.70;96114.00;;;;8205367;28;20200;-69
2023/06/10 07:03:00;;;;;;;8.02;6.00;;;;;24.80;96114.00;;;;8207065;28;20715;-69
2023/06/10 07:07:06;;;;;;;6.90;6.30;;;;;24.90;96122.00;;;;8200094;28;20347;-69
2023/06/10 07:11:11;;;;;;;8.23;6.60;;;;;24.80;96134.00;;;;8209735;28;20686;-69
2023/06/10 07:15:16;;;;;;;10.00;6.85;;;;;24.90;96121.00;;;;8209099;28;20207;-69
2023/06/10 07:19:19;;;;;;;8.40;7.07;;;;;25.10;96138.00;;;;8199573;28;20270;-70
2023/06/10 07:23:22;;;;;;;8.80;6.57;;;;;25.10;96132.00;;;;8198456;28;20288;-71
2023/06/10 07:27:27;;;;;;;11.55;6.93;;;;;25.30;96125.00;;;;8187848;28;20265;-73
2023/06/10 07:31:33;;;;;;;8.25;6.88;;;;;25.70;96132.00;;;;8207554;28;20192;-71
2023/06/10 07:35:38;;;;;;;7.22;6.50;;;;;25.70;96133.00;;;;8197572;28;20207;-71
2023/06/10 07:39:43;;;;;;;8.10;7.30;;;;;25.90;96136.00;;;;8208936;28;21643;-71
2023/06/10 07:43:47;;;;;;;9.40;7.88;;;;;25.20;96136.00;;;;8210735;28;20278;-71
2023/06/10 07:47:53;;;;;;;9.85;7.75;;;;;24.70;96139.00;;;;8212466;28;20772;-71
2023/06/10 07:51:58;;;;;;;9.10;6.78;;;;;25.00;96133.00;;;;8207182;28;20200;-71
2023/06/10 07:56:01;;;;;;;8.57;6.85;;;;;25.20;96135.00;;;;8203510;28;20835;-71
2023/06/10 08:00:11;;;;;;;9.18;6.70;;;;;25.30;96131.00;;;;8207100;28;20304;-71
2023/06/10 08:04:14;;;;;;;8.38;6.47;;;;;25.70;96145.00;;;;8215607;28;20235;-70
2023/06/10 08:08:30;;;;;;;10.60;7.30;;;;;25.80;96143.00;;;;8203822;28;20227;-70
2023/06/10 08:12:33;;;;;;;7.78;6.97;;;;;25.10;96148.00;;;;8205443;28;20819;-69
2023/06/10 08:16:42;;;;;;;8.57;7.78;;;;;24.80;96145.00;;;;8208461;28;20729;-72
2023/06/10 08:20:47;;;;;;;7.20;6.47;;;;;24.80;96154.00;;;;8219762;28;20203;-73
2023/06/10 08:24:50;;;;;;;7.65;6.40;;;;;25.00;96163.00;;;;8200431;28;20227;-72
2023/06/10 08:28:54;;;;;;;7.85;6.28;;;;;25.20;96168.00;;;;8210254;28;20204;-73
2023/06/10 08:33:03;;;;;;;8.65;6.65;;;;;25.50;96170.00;;;;8215850;28;20200;-73
2023/06/10 08:37:09;;;;;;;6.63;6.03;;;;;25.50;96161.00;;;;8217569;28;20200;-71
2023/06/10 08:41:15;;;;;;;10.63;6.65;;;;;25.70;96162.00;;;;8211945;28;20242;-71
2023/06/10 08:45:31;;;;;;;6.78;6.07;;;;;25.90;96158.00;;;;8213057;28;20231;-71
2023/06/10 08:49:40;;;;;;;7.18;6.38;;;;;25.70;96164.00;;;;8207845;28;20649;-70
2023/06/10 08:53:50;;;;;;;6.20;5.68;;;;;25.40;96164.00;;;;8212208;28;20746;-70
2023/06/10 08:57:55;;;;;;;18.35;6.53;;;;;25.70;96168.00;;;;8209865;28;20208;-71
2023/06/10 09:01:59;;;;;;;7.05;6.35;;;;;25.50;96160.00;;;;8206227;28;20843;-69
2023/06/10 09:06:06;;;;;;;6.43;5.82;;;;;26.30;96150.00;;;;8195562;28;20238;-72
2023/06/10 09:10:16;;;;;;;6.53;5.53;;;;;27.60;96154.00;;;;8201310;28;20589;-73
2023/06/10 09:14:23;;;;;;;8.57;6.05;;;;;27.70;96155.00;;;;8208883;28;20296;-73
2023/06/10 09:18:26;;;;;;;6.50;5.80;;;;;28.00;96155.00;;;;8216429;28;20291;-71
2023/06/10 09:22:34;;;;;;;5.80;5.20;;;;;28.70;96159.00;;;;8213007;28;20807;-74
2023/06/10 09:26:37;;;;;;;5.85;5.20;;;;;28.00;96154.00;;;;8198484;28;20338;-74
2023/06/10 09:30:40;;;;;;;5.55;5.05;;;;;27.40;96160.00;;;;8207005;28;20209;-72
2023/06/10 09:34:45;;;;;;;5.55;5.15;;;;;27.40;96158.00;;;;8212117;28;20292;-74
2023/06/10 09:38:53;;;;;;;5.53;4.85;;;;;27.20;96154.00;;;;8211532;28;20208;-72
2023/06/10 09:42:58;;;;;;;9.63;5.07;;;;;27.10;96165.00;;;;8214051;28;20688;-73
2023/06/10 09:47:04;;;;;;;5.20;4.80;;;;;27.60;96169.00;;;;8213733;28;20314;-74
2023/06/10 09:51:16;;;;;;;5.07;4.68;;;;;29.10;96165.00;;;;8207164;28;20213;-73
2023/06/10 09:55:22;;;;;;;5.35;4.85;;;;;30.40;96160.00;;;;8216068;28;20282;-78
2023/06/10 09:59:34;;;;;;;5.50;4.38;;;;;31.50;96152.00;;;;8214838;28;20332;-76
2023/06/10 10:03:48;;;;;;;4.38;3.97;;;;;32.80;96148.00;;;;8209791;28;20940;-75
2023/06/10 10:07:53;;;;;;;5.35;4.85;;;;;33.20;96160.00;;;;8193513;28;20657;-78
2023/06/10 10:12:02;;;;;;;4.90;4.50;;;;;33.00;96157.00;;;;8211277;28;20687;-76
2023/06/10 10:16:11;;;;;;;4.55;4.25;;;;;32.50;96161.00;;;;8212918;28;20298;-76
2023/06/10 10:20:18;;;;;;;5.15;4.68;;;;;32.30;96162.00;;;;8210021;28;20234;-76
2023/06/10 10:24:26;;;;;;;4.70;4.30;;;;;30.70;96162.00;;;;8206305;28;20192;-76
2023/06/10 10:28:45;;;;;;;5.45;5.00;;;;;30.60;96166.00;;;;8210091;28;20223;-77
2023/06/10 10:33:03;;;;;;;5.68;5.15;;;;;30.50;96156.00;;;;8205838;28;20204;-71
2023/06/10 10:37:10;;;;;;;4.78;4.47;;;;;30.40;96164.00;;;;8203498;28;20222;-71
2023/06/10 10:41:20;;;;;;;6.07;5.40;;;;;30.40;96165.00;;;;8203835;28;20206;-71
2023/06/10 10:45:25;;;;;;;5.57;5.13;;;;;30.10;96161.00;;;;8200336;28;20204;-71
2023/06/10 10:49:31;;;;;;;7.78;5.57;;;;;29.60;96161.00;;;;8195404;28;20231;-73
2023/06/10 10:53:35;;;;;;;6.13;5.50;;;;;30.10;96162.00;;;;8201177;28;20868;-72
2023/06/10 10:57:39;;;;;;;5.55;5.07;;;;;30.70;96176.00;;;;8205289;28;20196;-75
2023/06/10 11:01:46;;;;;;;6.20;5.55;;;;;30.70;96158.00;;;;8205757;28;20208;-75
2023/06/10 11:05:50;;;;;;;5.60;5.10;;;;;30.20;96168.00;;;;8205177;28;20720;-75
2023/06/10 11:10:04;;;;;;;6.35;5.63;;;;;29.60;96171.00;;;;8199803;28;20204;-75
2023/06/10 11:14:12;;;;;;;7.55;6.38;;;;;28.40;96167.00;;;;8203365;28;20204;-74
2023/06/10 11:18:24;;;;;;;8.10;7.18;;;;;26.40;96169.00;;;;8192908;28;20295;-74
2023/06/10 11:22:28;;;;;;;7.88;7.05;;;;;25.60;96168.00;;;;8205808;28;20203;-72
2023/06/10 11:26:35;;;;;;;8.27;7.47;;;;;25.20;96167.00;;;;8184981;28;20814;-74
2023/06/10 11:30:38;;;;;;;7.72;6.90;;;;;24.90;96161.00;;;;8203983;28;20294;-76
2023/06/10 11:34:43;;;;;;;7.13;6.53;;;;;25.00;96157.00;;;;8205362;28;20203;-80
2023/06/10 11:38:52;;;;;;;10.00;6.72;;;;;25.20;96166.00;;;;8208165;28;20692;-76
2023/06/10 11:42:59;;;;;;;7.00;6.35;;;;;25.40;96156.00;;;;8208792;28;20200;-79
2023/06/10 11:47:02;;;;;;;7.22;6.50;;;;;25.90;96162.00;;;;8207476;28;21062;-70
2023/06/10 11:51:10;;;;;;;9.00;6.53;;;;;26.40;96162.00;;;;8182793;28;20200;-77
2023/06/10 11:55:13;;;;;;;7.68;6.90;;;;;27.00;96156.00;;;;8212791;28;20231;-77
2023/06/10 11:59:19;;;;;;;6.90;6.30;;;;;28.30;96155.00;;;;8193748;28;20203;-74
2023/06/10 12:03:23;;;;;;;8.27;6.47;;;;;30.50;96156.00;;;;8212540;28;20366;-75
2023/06/10 12:07:27;;;;;;;6.43;5.82;;;;;30.90;96154.00;;;;8208691;28;20314;-73
2023/06/10 12:11:32;;;;;;;9.60;6.35;;;;;31.10;96156.00;;;;8220570;28;20266;-75
2023/06/10 12:15:40;;;;;;;6.25;5.60;;;;;31.30;96153.00;;;;8211999;28;20207;-76
2023/06/10 12:19:44;;;;;;;6.70;6.00;;;;;31.90;96154.00;;;;8206858;28;20198;-75
2023/06/10 12:24:09;;;;;;;8.77;6.28;;;;;32.50;96149.00;;;;8210791;28;20322;-75
2023/06/10 12:28:17;;;;;;;6.65;5.90;;;;;32.40;96148.00;;;;8210827;28;20231;-73
2023/06/10 12:32:22;;;;;;;6.82;6.22;;;;;32.10;96151.00;;;;8205784;28;20271;-73
2023/06/10 12:36:28;;;;;;;6.53;5.85;;;;;31.80;96162.00;;;;8193433;28;20201;-74
2023/06/10 12:40:40;;;;;;;6.75;6.15;;;;;31.40;96159.00;;;;8198791;28;20211;-72
2023/06/10 12:44:45;;;;;;;7.22;6.25;;;;;30.40;96159.00;;;;8209552;28;20231;-72
2023/06/10 12:48:55;;;;;;;8.25;6.93;;;;;29.50;96160.00;;;;8210029;28;20224;-74
2023/06/10 12:52:58;;;;;;;6.32;5.72;;;;;29.10;96160.00;;;;8208816;28;20294;-72
2023/06/10 12:57:03;;;;;;;7.75;6.00;;;;;29.00;96157.00;;;;8209457;28;20284;-74
2023/06/10 13:01:06;;;;;;;7.35;6.65;;;;;28.70;96156.00;;;;8214363;28;20681;-70
2023/06/10 13:05:09;;;;;;;6.72;6.13;;;;;28.20;96145.00;;;;8203738;28;20228;-74
2023/06/10 13:09:19;;;;;;;5.60;5.10;;;;;27.90;96151.00;;;;8219011;28;20215;-74
2023/06/10 13:13:24;;;;;;;4.85;4.50;;;;;28.20;96150.00;;;;8211475;28;20200;-73
2023/06/10 13:17:27;;;;;;;5.07;4.60;;;;;28.50;96135.00;;;;8207334;28;20207;-73
2023/06/10 13:21:32;;;;;;;7.97;3.83;;;;;28.50;96132.00;;;;8209438;28;20271;-71
2023/06/10 13:25:35;;;;;;;4.70;4.32;;;;;28.50;96124.00;;;;8202400;28;20752;-74
2023/06/10 13:29:40;;;;;;;4.75;4.35;;;;;28.70;96133.00;;;;8211685;28;20231;-73
2023/06/10 13:33:44;;;;;;;5.10;4.60;;;;;28.90;96130.00;;;;8217233;28;20207;-71
2023/06/10 13:37:47;;;;;;;5.00;4.60;;;;;29.90;96131.00;;;;8215393;28;20211;-73
2023/06/10 13:41:51;;;;;;;6.18;4.35;;;;;31.30;96127.00;;;;8213527;28;20637;-73
2023/06/10 13:45:59;;;;;;;5.00;4.60;;;;;32.60;96118.00;;;;8220862;28;20716;-74
2023/06/10 13:50:04;;;;;;;4.32;4.00;;;;;33.90;96112.00;;;;8219802;28;20231;-72
2023/06/10 13:54:10;;;;;;;4.93;4.55;;;;;34.00;96117.00;;;;8220109;28;20235;-72
2023/06/10 13:58:14;;;;;;;4.40;4.05;;;;;33.10;96117.00;;;;8224357;28;20235;-72
2023/06/10 14:02:19;;;;;;;4.80;4.50;;;;;32.00;96126.00;;;;8218090;28;20262;-72
2023/06/10 14:06:26;;;;;;;5.13;4.60;;;;;30.60;96131.00;;;;8217195;28;20203;-73
2023/06/10 14:10:33;;;;;;;5.32;4.90;;;;;29.40;96123.00;;;;8186363;28;20319;-72
2023/06/10 14:14:36;;;;;;;6.28;5.50;;;;;28.60;96130.00;;;;8201309;28;20239;-72
2023/06/10 14:18:41;;;;;;;6.18;4.78;;;;;28.40;96131.00;;;;8198061;28;20283;-72
2023/06/10 14:22:45;;;;;;;5.90;5.05;;;;;28.40;96131.00;;;;8198474;28;20279;-71
2023/06/10 14:26:51;;;;;;;6.90;5.47;;;;;28.40;96123.00;;;;8205172;28;20215;-72
2023/06/10 14:30:55;;;;;;;6.03;4.90;;;;;28.60;96130.00;;;;8198640;28;20713;-71
2023/06/10 14:35:02;;;;;;;5.28;4.85;;;;;28.70;96132.00;;;;8200081;28;20279;-72
2023/06/10 14:39:07;;;;;;;5.90;5.45;;;;;28.70;96140.00;;;;8196683;28;20212;-70
2023/06/10 14:43:10;;;;;;;5.88;4.93;;;;;28.80;96132.00;;;;8197880;28;20208;-70
2023/06/10 14:47:14;;;;;;;6.68;4.90;;;;;28.60;96130.00;;;;8196351;28;20693;-73
2023/06/10 14:51:20;;;;;;;5.45;4.95;;;;;28.50;96126.00;;;;8205991;28;20499;-72
2023/06/10 14:55:26;;;;;;;6.20;5.18;;;;;28.80;96129.00;;;;8198033;28;20208;-71
2023/06/10 14:59:29;;;;;;;5.20;4.78;;;;;29.50;96131.00;;;;8197351;28;20244;-73
2023/06/10 15:03:39;;;;;;;11.00;5.32;;;;;29.10;96166.00;;;;8210114;28;20228;-72
2023/06/10 15:07:44;;;;;;;9.90;6.35;;;;;25.40;96165.00;;;;8204231;28;20626;-76
2023/06/10 15:11:52;;;;;;;8.93;6.93;;;;;23.20;96162.00;;;;8183777;28;20291;-73
2023/06/10 15:15:55;;;;;;;13.82;7.90;;;;;22.10;96163.00;;;;8196629;28;20236;-74
2023/06/10 15:19:58;;;;;;;11.32;7.53;;;;;21.40;96158.00;;;;8200161;28;20215;-73
2023/06/10 15:24:04;;;;;;;16.20;8.30;;;;;21.00;96150.00;;;;8208992;28;20226;-73
2023/06/10 15:28:07;;;;;;;11.68;8.75;;;;;20.70;96140.00;;;;8197921;28;20329;-73
2023/06/10 15:32:13;;;;;;;11.10;9.40;;;;;20.70;96128.00;;;;8207661;28;20227;-73
2023/06/10 15:36:21;;;;;;;14.48;10.30;;;;;20.60;96125.00;;;;8221021;28;20573;-74
2023/06/10 15:40:26;;;;;;;17.75;11.23;;;;;20.80;96127.00;;;;8216207;28;20210;-72
2023/06/10 15:44:33;;;;;;;18.50;11.43;;;;;20.90;96127.00;;;;8219296;28;20693;-73
2023/06/10 15:48:38;;;;;;;20.73;11.38;;;;;20.90;96117.00;;;;8204956;28;20231;-71
2023/06/10 15:52:41;;;;;;;16.02;10.77;;;;;21.00;96130.00;;;;8202587;28;20199;-72
2023/06/10 15:56:53;;;;;;;13.15;9.88;;;;;21.20;96142.00;;;;8212004;28;20586;-72
2023/06/10 16:00:58;;;;;;;13.30;8.95;;;;;21.40;96134.00;;;;8195729;28;20204;-72
2023/06/10 16:05:06;;;;;;;11.18;9.45;;;;;21.80;96134.00;;;;8207765;28;20235;-75
2023/06/10 16:09:10;;;;;;;9.27;8.25;;;;;21.90;96124.00;;;;8205141;28;21029;-69
2023/06/10 16:13:15;;;;;;;13.43;8.52;;;;;22.10;96144.00;;;;8202415;28;20323;-72
2023/06/10 16:17:19;;;;;;;10.27;8.73;;;;;22.80;96145.00;;;;8210401;28;20207;-74
2023/06/10 16:21:22;;;;;;;7.80;7.05;;;;;23.90;96141.00;;;;8205551;28;20275;-80
2023/06/10 16:25:30;;;;;;;7.40;6.38;;;;;24.80;96141.00;;;;8212557;28;20568;-77
2023/06/10 16:29:46;;;;;;;8.25;7.43;;;;;25.20;96141.00;;;;8208286;28;20503;-79
2023/06/10 16:33:54;;;;;;;9.52;8.57;;;;;25.30;96142.00;;;;8204509;28;21134;-79
2023/06/10 16:37:57;;;;;;;9.77;6.93;;;;;25.30;96149.00;;;;8196688;28;20199;-75
2023/06/10 16:42:08;;;;;;;7.15;6.45;;;;;25.30;96146.00;;;;8209675;28;20200;-74
2023/06/10 16:46:16;;;;;;;10.68;9.57;;;;;25.30;96150.00;;;;8211132;28;20689;-72
2023/06/10 16:50:25;;;;;;;7.97;7.10;;;;;25.20;96162.00;;;;8225180;28;27923;-73
2023/06/10 16:54:33;;;;;;;7.25;6.43;;;;;25.10;96152.00;;;;8235780;28;20234;-72
2023/06/10 16:58:42;;;;;;;7.20;6.35;;;;;25.10;96151.00;;;;8246316;28;20824;-70
2023/06/10 17:02:49;;;;;;;7.28;5.72;;;;;25.00;96147.00;;;;8242656;28;20281;-67
2023/06/10 17:06:52;;;;;;;7.03;5.13;;;;;25.40;96150.00;;;;8236186;28;20214;-70
2023/06/10 17:10:58;;;;;;;9.02;5.68;;;;;25.80;96152.00;;;;8232883;28;20236;-71
2023/06/10 17:15:05;;;;;;;5.65;4.60;;;;;25.90;96154.00;;;;8233001;28;22264;-71
2023/06/10 17:19:11;;;;;;;8.10;5.40;;;;;25.80;96157.00;;;;8241302;28;20858;-72
2023/06/10 17:23:18;;;;;;;8.77;5.75;;;;;26.00;96163.00;;;;8237016;28;20710;-71
2023/06/10 17:27:27;;;;;;;7.20;5.50;;;;;25.80;96158.00;;;;8238058;28;20210;-71
2023/06/10 17:31:32;;;;;;;6.07;5.45;;;;;26.10;96154.00;;;;8238497;28;20231;-71
2023/06/10 17:35:38;;;;;;;6.78;5.40;;;;;25.80;96162.00;;;;8241836;28;20206;-70
2023/06/10 17:39:41;;;;;;;9.10;6.20;;;;;25.30;96169.00;;;;8243432;28;20210;-71
2023/06/10 17:43:46;;;;;;;6.68;5.70;;;;;24.80;96169.00;;;;8247022;28;20631;-71
2023/06/10 17:47:50;;;;;;;8.02;5.82;;;;;24.50;96182.00;;;;8238041;28;20330;-69
2023/06/10 17:51:56;;;;;;;6.70;5.82;;;;;24.20;96180.00;;;;8241879;28;21110;-71
2023/06/10 17:56:02;;;;;;;6.75;5.68;;;;;23.90;96195.00;;;;8234945;28;20301;-70
2023/06/10 18:00:06;;;;;;;7.13;5.50;;;;;23.60;96204.00;;;;8237084;28;20769;-70
2023/06/10 18:04:09;;;;;;;7.75;5.38;;;;;23.20;96212.00;;;;8229201;28;20262;-70
2023/06/10 18:08:17;;;;;;;8.75;5.13;;;;;23.00;96219.00;;;;8244786;28;20311;-70
2023/06/10 18:12:21;;;;;;;7.25;5.32;;;;;22.70;96219.00;;;;8238606;28;20210;-71
2023/06/10 18:16:26;;;;;;;7.20;5.90;;;;;22.50;96232.00;;;;8240691;28;20282;-70
2023/06/10 18:20:31;;;;;;;10.10;6.50;;;;;22.30;96219.00;;;;8235871;28;20724;-71
2023/06/10 18:24:42;;;;;;;6.95;6.25;;;;;22.10;96230.00;;;;8220888;28;20258;-70
2023/06/10 18:28:45;;;;;;;7.13;6.13;;;;;21.90;96229.00;;;;8238497;28;20702;-70
2023/06/10 18:32:48;;;;;;;8.18;6.28;;;;;21.80;96233.00;;;;8239916;28;20572;-71
2023/06/10 18:36:52;;;;;;;6.45;4.97;;;;;21.60;96232.00;;;;8237160;28;20205;-70
2023/06/10 18:40:58;;;;;;;6.53;4.40;;;;;21.40;96233.00;;;;8234681;28;20207;-70
2023/06/10 18:45:03;;;;;;;4.05;3.72;;;;;21.30;96237.00;;;;8235301;28;20217;-70
2023/06/10 18:49:06;;;;;;;6.30;4.18;;;;;21.10;96241.00;;;;8231693;28;20325;-70
2023/06/10 18:53:10;;;;;;;5.07;4.53;;;;;20.90;96241.00;;;;8239275;28;20199;-69
2023/06/10 18:57:17;;;;;;;4.88;4.30;;;;;20.70;96234.00;;;;8235557;28;20203;-70
2023/06/10 19:01:20;;;;;;;6.93;4.88;;;;;20.60;96249.00;;;;8232009;28;20218;-70
2023/06/10 19:05:28;;;;;;;5.72;4.72;;;;;20.40;96251.00;;;;8240172;28;20214;-70
2023/06/10 19:09:34;;;;;;;4.55;4.15;;;;;20.40;96258.00;;;;8233546;28;20263;-70
2023/06/10 19:13:40;;;;;;;14.07;4.82;;;;;20.30;96261.00;;;;8245149;28;20286;-71
2023/06/10 19:17:43;;;;;;;6.28;4.25;;;;;20.10;96266.00;;;;8242954;28;20199;-70
2023/06/10 19:21:49;;;;;;;5.10;4.57;;;;;19.90;96275.00;;;;8239439;28;20199;-71
2023/06/10 19:25:53;;;;;;;6.00;5.13;;;;;19.70;96277.00;;;;8239751;28;20195;-71
2023/06/10 19:30:05;;;;;;;7.97;5.50;;;;;19.60;96279.00;;;;8237909;28;20229;-71
2023/06/10 19:34:08;;;;;;;5.80;5.20;;;;;19.40;96280.00;;;;8235849;28;20637;-70
2023/06/10 19:38:13;;;;;;;9.70;5.00;;;;;19.20;96286.00;;;;8235106;28;20289;-70
2023/06/10 19:42:16;;;;;;;6.25;5.65;;;;;19.00;96291.00;;;;8228954;28;20221;-70
2023/06/10 19:46:21;;;;;;;7.25;6.47;;;;;18.90;96286.00;;;;8238285;28;20218;-70
2023/06/10 19:50:27;;;;;;;10.50;6.00;;;;;18.90;96297.00;;;;8233675;28;20254;-71
2023/06/10 19:54:35;;;;;;;7.30;6.50;;;;;19.00;96296.00;;;;8235894;28;20207;-69
2023/06/10 19:58:42;;;;;;;7.53;6.40;;;;;19.00;96296.00;;;;8237336;28;20267;-66
2023/06/10 20:02:46;;;;;;;8.82;6.82;;;;;19.10;96302.00;;;;8237030;28;20230;-68
2023/06/10 20:06:51;;;;;;;8.85;6.68;;;;;19.10;96299.00;;;;8245891;28;20195;-69
2023/06/10 20:10:56;;;;;;;8.93;7.90;;;;;19.10;96306.00;;;;8239415;28;20262;-69
2023/06/10 20:15:01;;;;;;;9.38;6.97;;;;;19.10;96307.00;;;;8215913;28;20334;-68
2023/06/10 20:19:08;;;;;;;7.65;6.78;;;;;19.10;96299.00;;;;8239862;28;20306;-69
2023/06/10 20:23:11;;;;;;;7.72;6.20;;;;;19.10;96309.00;;;;8244928;28;20213;-69
2023/06/10 20:27:15;;;;;;;8.05;6.40;;;;;19.10;96295.00;;;;8247519;28;20290;-69
2023/06/10 20:31:19;;;;;;;8.50;6.93;;;;;19.10;96299.00;;;;8234424;28;20227;-68